createdAt,value
2023-01-21T00:01:02.764Z,25.50
2023-01-21T00:03:06.883Z,21.45
2023-01-21T00:05:10.341Z,21.60
2023-01-21T00:07:12.999Z,18.88
2023-01-21T00:09:15.974Z,17.92
2023-01-21T00:11:18.628Z,14.93
2023-01-21T00:13:21.268Z,18.58
2023-01-21T00:15:23.994Z,16.58
2023-01-21T00:17:26.633Z,16.17
2023-01-21T00:19:30.636Z,17.55
2023-01-21T00:21:33.294Z,20.42
2023-01-21T00:23:36.032Z,20.25
2023-01-21T00:25:38.713Z,20.23
2023-01-21T00:27:41.562Z,20.30
2023-01-21T00:29:44.219Z,18.10
2023-01-21T00:31:46.949Z,19.75
2023-01-21T00:33:50.368Z,18.52
2023-01-21T00:36:00.487Z,17.80
2023-01-21T00:38:03.150Z,19.50
2023-01-21T00:40:07.680Z,19.98
2023-01-21T00:42:11.158Z,18.45
2023-01-21T00:44:13.900Z,18.52
2023-01-21T00:46:16.997Z,19.27
2023-01-21T00:48:19.687Z,22.35
2023-01-21T00:50:22.408Z,19.40
2023-01-21T00:52:27.112Z,18.15
2023-01-21T00:54:31.259Z,17.95
2023-01-21T00:56:34.018Z,22.58
2023-01-21T00:58:37.525Z,25.23
2023-01-21T01:00:40.520Z,20.85
2023-01-21T01:02:43.317Z,18.35
2023-01-21T01:04:46.047Z,19.05
2023-01-21T01:06:48.778Z,19.42
2023-01-21T01:08:54.240Z,16.27
2023-01-21T01:10:56.981Z,15.18
2023-01-21T01:13:01.446Z,17.15
2023-01-21T01:15:04.592Z,16.60
2023-01-21T01:17:07.312Z,16.98
2023-01-21T01:19:10.928Z,15.20
2023-01-21T01:21:15.358Z,17.48
2023-01-21T01:23:18.072Z,17.60
2023-01-21T01:25:22.207Z,18.00
2023-01-21T01:27:25.005Z,16.83
2023-01-21T01:29:28.486Z,19.17
2023-01-21T01:31:31.241Z,19.55
2023-01-21T01:33:34.616Z,14.68
2023-01-21T01:35:37.318Z,21.38
2023-01-21T01:37:40.070Z,25.40
2023-01-21T01:39:42.844Z,22.35
2023-01-21T01:41:46.930Z,23.33
2023-01-21T01:44:01.042Z,24.60
2023-01-21T01:46:03.850Z,19.23
2023-01-21T01:48:06.715Z,17.77
2023-01-21T01:50:13.889Z,16.48
2023-01-21T01:52:18.211Z,19.10
2023-01-21T01:54:25.464Z,130.73
2023-01-21T01:56:30.199Z,69.60
2023-01-21T01:58:35.424Z,30.50
2023-01-21T02:00:38.671Z,23.23
2023-01-21T02:03:04.203Z,20.73
2023-01-21T02:05:10.245Z,16.95
2023-01-21T02:07:13.281Z,18.33
2023-01-21T02:09:15.996Z,18.17
2023-01-21T02:11:20.560Z,18.08
2023-01-21T02:13:24.582Z,20.52
2023-01-21T02:15:36.872Z,19.52
2023-01-21T02:17:55.262Z,16.77
2023-01-21T02:20:33.380Z,16.60
2023-01-21T02:22:41.348Z,19.17
2023-01-21T02:25:21.085Z,17.92
2023-01-21T02:27:40.413Z,19.08
2023-01-21T02:30:13.976Z,18.35
2023-01-21T02:32:53.457Z,21.17
2023-01-21T02:35:02.232Z,18.80
2023-01-21T02:37:11.990Z,21.08
2023-01-21T02:39:27.338Z,18.65
2023-01-21T02:41:42.835Z,21.05
2023-01-21T02:43:54.795Z,19.48
2023-01-21T02:46:02.831Z,24.25
2023-01-21T02:48:12.413Z,17.10
2023-01-21T02:50:23.027Z,21.73
2023-01-21T02:52:26.742Z,19.30
2023-01-21T02:54:53.183Z,22.33
2023-01-21T02:56:55.846Z,18.20
2023-01-21T02:59:02.840Z,19.73
2023-01-21T03:01:16.558Z,18.52
2023-01-21T03:03:53.750Z,19.88
2023-01-21T03:06:26.783Z,17.38
2023-01-21T03:08:34.010Z,20.23
2023-01-21T03:10:41.808Z,17.80
2023-01-21T03:12:56.889Z,20.27
2023-01-21T03:15:23.116Z,18.45
2023-01-21T03:17:35.430Z,18.92
2023-01-21T03:19:44.095Z,19.73
2023-01-21T03:21:50.002Z,17.42
2023-01-21T03:23:54.873Z,16.75
2023-01-21T03:25:59.737Z,16.63
2023-01-21T03:28:07.527Z,18.65
2023-01-21T03:30:14.465Z,15.80
2023-01-21T03:32:19.339Z,19.30
2023-01-21T03:34:26.515Z,20.17
2023-01-21T03:36:37.187Z,20.48
2023-01-21T03:38:48.982Z,19.10
2023-01-21T03:40:57.493Z,20.85
2023-01-21T03:43:00.396Z,20.30
2023-01-21T03:45:03.621Z,18.27
2023-01-21T03:47:15.798Z,16.92
2023-01-21T03:49:23.809Z,18.45
2023-01-21T03:51:33.876Z,18.20
2023-01-21T03:53:36.651Z,17.75
2023-01-21T03:55:41.230Z,19.08
2023-01-21T03:57:43.980Z,17.77
2023-01-21T03:59:46.670Z,19.88
2023-01-21T04:01:49.364Z,17.50
2023-01-21T04:03:52.049Z,16.65
2023-01-21T04:05:54.736Z,15.52
2023-01-21T04:07:57.359Z,16.08
2023-01-21T04:10:00.051Z,15.43
2023-01-21T04:12:04.417Z,15.90
2023-01-21T04:14:07.126Z,16.63
2023-01-21T04:16:10.193Z,18.08
2023-01-21T04:18:12.843Z,17.05
2023-01-21T04:20:16.096Z,16.20
2023-01-21T04:22:19.411Z,16.10
2023-01-21T04:24:22.059Z,16.20
2023-01-21T04:26:24.766Z,18.38
2023-01-21T04:28:29.783Z,15.75
2023-01-21T04:30:32.486Z,18.17
2023-01-21T04:32:37.113Z,17.15
2023-01-21T04:34:39.726Z,16.58
2023-01-21T04:36:42.373Z,16.58
2023-01-21T04:38:46.179Z,16.17
2023-01-21T04:40:48.858Z,16.55
2023-01-21T04:42:51.598Z,17.25
2023-01-21T04:44:55.641Z,17.27
2023-01-21T04:46:58.443Z,20.05
2023-01-21T04:49:01.135Z,19.10
2023-01-21T04:51:04.087Z,20.40
2023-01-21T04:53:06.802Z,19.35
2023-01-21T04:55:10.551Z,18.67
2023-01-21T04:57:13.318Z,18.10
2023-01-21T04:59:16.081Z,17.70
2023-01-21T05:01:20.301Z,17.98
2023-01-21T05:03:23.073Z,18.75
2023-01-21T05:05:25.823Z,18.17
2023-01-21T05:07:28.779Z,18.25
2023-01-21T05:09:31.466Z,16.85
2023-01-21T05:11:34.155Z,19.33
2023-01-21T05:13:36.832Z,17.05
2023-01-21T05:15:39.612Z,17.83
2023-01-21T05:17:43.731Z,17.83
2023-01-21T05:19:47.101Z,19.38
2023-01-21T05:21:49.790Z,15.70
2023-01-21T05:23:52.501Z,15.98
2023-01-21T05:25:55.412Z,15.95
2023-01-21T05:27:58.086Z,18.33
2023-01-21T05:30:00.785Z,16.50
2023-01-21T05:32:03.481Z,14.40
2023-01-21T05:34:07.537Z,14.35
2023-01-21T05:36:11.113Z,13.98
2023-01-21T05:38:13.810Z,15.23
2023-01-21T05:40:17.567Z,12.27
2023-01-21T05:42:20.456Z,15.35
2023-01-21T05:44:23.158Z,17.13
2023-01-21T05:46:26.060Z,17.50
2023-01-21T05:48:30.059Z,15.27
2023-01-21T05:50:34.191Z,15.88
2023-01-21T05:52:37.048Z,13.27
2023-01-21T05:54:52.529Z,13.43
2023-01-21T05:57:02.435Z,13.02
2023-01-21T05:59:05.158Z,12.73
2023-01-21T06:01:08.012Z,13.98
2023-01-21T06:03:10.705Z,12.82
2023-01-21T06:05:14.509Z,12.57
2023-01-21T06:07:18.624Z,11.32
2023-01-21T06:09:21.285Z,13.50
2023-01-21T06:11:24.233Z,12.13
2023-01-21T06:13:26.961Z,13.05
2023-01-21T06:15:29.907Z,13.13
2023-01-21T06:17:32.687Z,13.30
2023-01-21T06:19:35.414Z,13.73
2023-01-21T06:21:38.151Z,14.35
2023-01-21T06:23:42.190Z,11.68
2023-01-21T06:25:44.909Z,13.70
2023-01-21T06:27:47.629Z,12.60
2023-01-21T06:29:50.397Z,10.77
2023-01-21T06:31:53.202Z,12.88
2023-01-21T06:33:55.945Z,11.30
2023-01-21T06:35:58.682Z,9.35
2023-01-21T06:38:01.365Z,14.90
2023-01-21T06:40:07.369Z,33.80
2023-01-21T06:42:10.077Z,35.63
2023-01-21T06:44:13.009Z,33.97
2023-01-21T06:46:15.785Z,35.40
2023-01-21T06:48:18.589Z,28.00
2023-01-21T06:50:21.351Z,29.10
2023-01-21T06:52:26.883Z,28.58
2023-01-21T06:54:30.598Z,21.15
2023-01-21T06:56:36.863Z,20.95
2023-01-21T06:58:39.574Z,17.98
2023-01-21T07:00:42.260Z,14.85
2023-01-21T07:02:45.370Z,13.77
2023-01-21T07:04:49.934Z,16.27
2023-01-21T07:06:52.840Z,18.20
2023-01-21T07:08:55.584Z,14.77
2023-01-21T07:10:58.507Z,15.55
2023-01-21T07:13:02.557Z,13.48
2023-01-21T07:15:06.452Z,11.75
2023-01-21T07:17:09.214Z,12.75
2023-01-21T07:19:12.482Z,11.50
2023-01-21T07:21:15.207Z,13.75
2023-01-21T07:23:17.903Z,12.00
2023-01-21T07:25:20.747Z,11.82
2023-01-21T07:27:23.434Z,13.80
2023-01-21T07:29:28.003Z,12.98
2023-01-21T07:31:30.822Z,14.80
2023-01-21T07:33:33.557Z,16.27
2023-01-21T07:35:36.449Z,14.55
2023-01-21T07:37:39.160Z,15.48
2023-01-21T07:39:41.840Z,15.98
2023-01-21T07:41:44.519Z,17.30
2023-01-21T07:43:48.658Z,16.38
2023-01-21T07:45:52.919Z,17.38
2023-01-21T07:47:55.601Z,17.77
2023-01-21T07:49:58.273Z,19.25
2023-01-21T07:52:00.961Z,22.70
2023-01-21T07:54:03.687Z,40.20
2023-01-21T07:56:07.144Z,58.60
2023-01-21T07:58:10.704Z,37.25
2023-01-21T08:00:14.498Z,20.52
2023-01-21T08:02:18.621Z,46.80
2023-01-21T08:04:21.443Z,36.17
2023-01-21T08:06:24.167Z,42.75
2023-01-21T08:08:26.939Z,46.33
2023-01-21T08:10:29.687Z,27.80
2023-01-21T08:12:32.373Z,32.13
2023-01-21T08:14:35.655Z,26.50
2023-01-21T08:16:38.496Z,36.15
2023-01-21T08:18:42.545Z,45.50
2023-01-21T08:20:45.531Z,29.20
2023-01-21T08:22:48.282Z,33.03
2023-01-21T08:24:50.998Z,29.13
2023-01-21T08:26:53.729Z,45.92
2023-01-21T08:28:56.520Z,48.88
2023-01-21T08:31:04.737Z,34.42
2023-01-21T08:33:07.491Z,35.70
2023-01-21T08:35:12.449Z,40.88
2023-01-21T08:37:15.276Z,43.60
2023-01-21T08:39:18.022Z,53.70
2023-01-21T08:41:20.704Z,40.30
2023-01-21T08:43:23.437Z,34.08
2023-01-21T08:45:26.203Z,33.50
2023-01-21T08:47:29.072Z,35.75
2023-01-21T08:49:31.781Z,36.80
2023-01-21T08:51:36.145Z,35.35
2023-01-21T08:53:42.653Z,36.95
2023-01-21T08:55:45.425Z,38.60
2023-01-21T08:57:51.949Z,32.47
2023-01-21T08:59:54.750Z,38.60
2023-01-21T09:01:57.953Z,37.53
2023-01-21T09:04:01.921Z,35.25
2023-01-21T09:06:06.602Z,75.45
2023-01-21T09:08:10.701Z,38.33
2023-01-21T09:10:34.111Z,34.60
2023-01-21T09:12:38.245Z,36.80
2023-01-21T09:14:40.947Z,37.20
2023-01-21T09:16:43.734Z,35.10
2023-01-21T09:18:47.362Z,35.33
2023-01-21T09:20:50.121Z,30.20
2023-01-21T09:22:52.853Z,30.77
2023-01-21T09:24:56.926Z,32.38
2023-01-21T09:26:59.672Z,27.45
2023-01-21T09:29:02.894Z,29.83
2023-01-21T09:31:07.232Z,38.13
2023-01-21T09:33:09.906Z,28.80
2023-01-21T09:35:12.606Z,30.13
2023-01-21T09:37:15.348Z,32.08
2023-01-21T09:39:18.173Z,34.25
2023-01-21T09:41:27.074Z,30.17
2023-01-21T09:43:35.955Z,28.90
2023-01-21T09:45:39.616Z,28.40
2023-01-21T09:47:45.929Z,26.55
2023-01-21T09:49:52.221Z,30.52
2023-01-21T09:52:01.599Z,29.40
2023-01-21T09:54:11.767Z,28.85
2023-01-21T09:56:26.853Z,28.50
2023-01-21T09:58:38.326Z,28.67
2023-01-21T10:00:47.780Z,27.10
2023-01-21T10:02:58.884Z,31.60
2023-01-21T10:05:18.174Z,28.25
2023-01-21T10:07:27.738Z,31.38
2023-01-21T10:09:48.106Z,30.83
2023-01-21T10:12:26.117Z,30.40
2023-01-21T10:14:49.302Z,32.10
2023-01-21T10:17:03.019Z,28.10
2023-01-21T10:19:08.882Z,28.27
2023-01-21T10:21:21.611Z,19.25
2023-01-21T10:23:31.720Z,27.45
2023-01-21T10:25:37.552Z,25.15
2023-01-21T10:27:44.673Z,28.42
2023-01-21T10:29:51.423Z,27.42
2023-01-21T10:31:59.319Z,24.25
2023-01-21T10:34:02.563Z,24.83
2023-01-21T10:36:27.029Z,26.70
2023-01-21T10:38:36.249Z,24.25
2023-01-21T10:40:48.052Z,28.88
2023-01-21T10:43:04.940Z,27.10
2023-01-21T10:45:18.673Z,26.83
2023-01-21T10:47:32.327Z,30.92
2023-01-21T10:49:53.018Z,20.92
2023-01-21T10:52:01.824Z,20.35
2023-01-21T10:54:12.814Z,20.27
2023-01-21T10:56:24.004Z,25.52
2023-01-21T10:58:33.363Z,22.42
2023-01-21T11:00:42.997Z,20.30
2023-01-21T11:02:50.321Z,23.27
2023-01-21T11:04:53.391Z,22.33
2023-01-21T11:07:01.439Z,20.95
2023-01-21T11:09:06.299Z,22.40
2023-01-21T11:11:10.206Z,20.02
2023-01-21T11:13:14.849Z,22.05
2023-01-21T11:15:20.861Z,20.98
2023-01-21T11:17:32.963Z,21.40
2023-01-21T11:19:35.645Z,20.92
2023-01-21T11:21:39.957Z,20.25
2023-01-21T11:23:42.779Z,19.33
2023-01-21T11:25:45.521Z,20.40
2023-01-21T11:27:48.217Z,21.20
2023-01-21T11:29:51.557Z,22.17
2023-01-21T11:32:04.108Z,22.27
2023-01-21T11:34:08.190Z,22.45
2023-01-21T11:36:14.398Z,21.10
2023-01-21T11:38:33.227Z,32.30
2023-01-21T11:40:36.086Z,25.48
2023-01-21T11:42:48.148Z,30.85
2023-01-21T11:44:53.495Z,23.50
2023-01-21T11:46:57.607Z,26.02
2023-01-21T11:49:20.127Z,24.38
2023-01-21T11:51:23.026Z,24.42
2023-01-21T11:53:25.719Z,41.83
2023-01-21T11:55:29.877Z,28.33
2023-01-21T11:57:34.156Z,34.85
2023-01-21T11:59:41.686Z,29.92
2023-01-21T12:01:52.444Z,25.90
2023-01-21T12:04:00.732Z,21.02
2023-01-21T12:06:04.263Z,22.42
2023-01-21T12:08:08.618Z,21.75
2023-01-21T12:10:25.555Z,21.60
2023-01-21T12:12:40.536Z,20.40
2023-01-21T12:14:51.988Z,22.52
2023-01-21T12:17:09.264Z,16.42
2023-01-21T12:19:35.683Z,24.80
2023-01-21T12:21:52.528Z,18.02
2023-01-21T12:24:09.783Z,24.17
2023-01-21T12:26:39.302Z,20.73
2023-01-21T12:28:58.870Z,12.48
2023-01-21T12:31:12.088Z,10.93
2023-01-21T12:33:22.316Z,13.30
2023-01-21T12:35:33.085Z,21.52
2023-01-21T12:37:42.895Z,16.42
2023-01-21T12:39:48.433Z,16.42
2023-01-21T12:42:03.007Z,13.90
2023-01-21T12:44:21.070Z,17.40
2023-01-21T12:46:28.585Z,15.55
2023-01-21T12:48:36.730Z,17.67
2023-01-21T12:50:43.742Z,15.77
2023-01-21T12:52:57.361Z,16.33
2023-01-21T12:55:06.109Z,20.08
2023-01-21T12:57:17.598Z,19.35
2023-01-21T12:59:27.114Z,17.35
2023-01-21T13:01:47.402Z,19.52
2023-01-21T13:03:59.402Z,16.50
2023-01-21T13:06:07.294Z,17.10
2023-01-21T13:08:32.526Z,21.38
2023-01-21T13:10:38.263Z,16.75
2023-01-21T13:12:45.026Z,16.20
2023-01-21T13:14:52.076Z,17.75
2023-01-21T13:16:59.992Z,22.85
2023-01-21T13:19:02.754Z,17.67
2023-01-21T13:21:15.282Z,19.88
2023-01-21T13:23:23.575Z,20.92
2023-01-21T13:25:36.259Z,18.42
2023-01-21T13:27:46.159Z,19.35
2023-01-21T13:29:58.370Z,17.27
2023-01-21T13:32:16.451Z,20.35
2023-01-21T13:34:26.964Z,20.33
2023-01-21T13:36:55.929Z,18.33
2023-01-21T13:39:05.209Z,21.20
2023-01-21T13:41:25.832Z,19.48
2023-01-21T13:43:55.235Z,16.27
2023-01-21T13:46:09.205Z,18.92
2023-01-21T13:48:30.823Z,18.55
2023-01-21T13:50:51.481Z,20.05
2023-01-21T13:53:24.169Z,16.30
2023-01-21T13:55:39.480Z,15.27
2023-01-21T13:58:02.932Z,16.83
2023-01-21T14:00:12.811Z,16.05
2023-01-21T14:02:19.274Z,15.07
2023-01-21T14:04:30.500Z,16.30
2023-01-21T14:06:39.791Z,18.58
2023-01-21T14:08:50.751Z,16.80
2023-01-21T14:10:57.632Z,15.45
2023-01-21T14:13:29.132Z,16.55
2023-01-21T14:15:51.093Z,18.02
2023-01-21T14:18:33.631Z,15.05
2023-01-21T14:20:56.950Z,17.63
2023-01-21T14:23:25.776Z,16.75
2023-01-21T14:25:44.965Z,17.73
2023-01-21T14:27:58.155Z,25.58
2023-01-21T14:30:10.651Z,29.73
2023-01-21T14:32:21.022Z,47.88
2023-01-21T14:34:28.626Z,26.10
2023-01-21T14:36:39.338Z,14.65
2023-01-21T14:38:53.973Z,17.02
2023-01-21T14:41:07.152Z,14.77
2023-01-21T14:43:20.000Z,16.38
2023-01-21T14:45:25.844Z,18.75
2023-01-21T14:47:48.141Z,15.95
2023-01-21T14:49:52.619Z,17.65
2023-01-21T14:51:55.459Z,17.80
2023-01-21T14:54:01.292Z,16.52
2023-01-21T14:56:20.988Z,15.13
2023-01-21T14:58:28.743Z,15.30
2023-01-21T15:00:34.074Z,17.17
2023-01-21T15:02:42.502Z,23.05
2023-01-21T15:04:55.299Z,15.77
2023-01-21T15:07:01.570Z,13.35
2023-01-21T15:09:05.484Z,15.18
2023-01-21T15:11:18.460Z,12.73
2023-01-21T15:13:31.539Z,10.93
2023-01-21T15:15:36.962Z,15.00
2023-01-21T15:17:47.858Z,14.75
2023-01-21T15:19:58.157Z,14.65
2023-01-21T15:22:21.661Z,14.02
2023-01-21T15:24:26.777Z,16.83
2023-01-21T15:26:34.053Z,18.38
2023-01-21T15:28:41.569Z,18.63
2023-01-21T15:30:59.169Z,13.80
2023-01-21T15:33:02.181Z,18.20
2023-01-21T15:35:16.567Z,15.70
2023-01-21T15:37:23.632Z,14.50
2023-01-21T15:39:33.258Z,16.58
2023-01-21T15:41:47.482Z,14.07
2023-01-21T15:43:59.596Z,14.45
2023-01-21T15:46:17.240Z,16.33
2023-01-21T15:48:43.884Z,18.67
2023-01-21T15:50:53.255Z,14.80
2023-01-21T15:53:25.770Z,16.70
2023-01-21T15:55:45.657Z,13.18
2023-01-21T15:57:53.394Z,14.07
2023-01-21T16:00:22.902Z,16.15
2023-01-21T16:02:30.042Z,14.18
2023-01-21T16:04:38.731Z,14.60
2023-01-21T16:06:50.482Z,16.40
2023-01-21T16:09:04.819Z,16.05
2023-01-21T16:11:22.707Z,15.35
2023-01-21T16:13:37.119Z,16.63
2023-01-21T16:15:50.216Z,16.48
2023-01-21T16:18:07.759Z,24.75
2023-01-21T16:20:13.569Z,14.27
2023-01-21T16:22:21.929Z,16.13
2023-01-21T16:24:28.807Z,16.52
2023-01-21T16:26:33.165Z,17.92
2023-01-21T16:28:49.048Z,13.13
2023-01-21T16:30:56.546Z,16.17
2023-01-21T16:33:13.535Z,14.05
2023-01-21T16:35:16.946Z,15.50
2023-01-21T16:37:21.648Z,16.63
2023-01-21T16:39:24.932Z,13.23
2023-01-21T16:41:27.853Z,12.57
2023-01-21T16:43:30.617Z,16.50
2023-01-21T16:45:34.688Z,14.32
2023-01-21T16:47:37.793Z,15.43
2023-01-21T16:49:43.392Z,15.85
2023-01-21T16:51:54.254Z,14.20
2023-01-21T16:54:28.365Z,15.00
2023-01-21T16:56:31.321Z,17.13
2023-01-21T16:58:36.029Z,18.63
2023-01-21T17:00:40.057Z,20.15
2023-01-21T17:02:42.753Z,15.60
2023-01-21T17:04:45.494Z,15.75
2023-01-21T17:06:48.606Z,17.65
2023-01-21T17:08:55.440Z,14.98
2023-01-21T17:11:00.592Z,14.43
2023-01-21T17:13:05.715Z,15.05
2023-01-21T17:15:19.873Z,14.25
2023-01-21T17:17:25.118Z,14.45
2023-01-21T17:19:32.476Z,15.70
2023-01-21T17:21:37.960Z,12.98
2023-01-21T17:23:47.520Z,15.23
2023-01-21T17:25:56.509Z,13.55
2023-01-21T17:27:59.323Z,13.10
2023-01-21T17:30:27.505Z,15.45
2023-01-21T17:32:34.062Z,12.20
2023-01-21T17:34:39.820Z,14.13
2023-01-21T17:36:44.931Z,14.93
2023-01-21T17:38:48.697Z,13.45
2023-01-21T17:41:02.007Z,14.63
2023-01-21T17:43:18.740Z,13.40
2023-01-21T17:45:30.970Z,13.43
2023-01-21T17:47:51.945Z,15.02
2023-01-21T17:50:04.089Z,15.23
2023-01-21T17:52:06.811Z,13.65
2023-01-21T17:54:20.090Z,12.45
2023-01-21T17:56:37.577Z,15.10
2023-01-21T17:58:49.291Z,12.88
2023-01-21T18:00:52.138Z,14.50
2023-01-21T18:02:56.275Z,14.70
2023-01-21T18:04:58.949Z,16.40
2023-01-21T18:07:02.100Z,16.05
2023-01-21T18:09:05.425Z,18.15
2023-01-21T18:11:08.103Z,14.73
2023-01-21T18:13:13.140Z,12.93
2023-01-21T18:15:18.312Z,14.15
2023-01-21T18:17:24.611Z,12.48
2023-01-21T18:19:32.207Z,12.63
2023-01-21T18:21:34.863Z,13.82
2023-01-21T18:23:37.516Z,12.38
2023-01-21T18:25:40.634Z,12.90
2023-01-21T18:27:46.781Z,14.48
2023-01-21T18:29:49.546Z,16.35
2023-01-21T18:31:52.341Z,13.00
2023-01-21T18:33:55.099Z,17.00
2023-01-21T18:35:59.770Z,14.52
2023-01-21T18:38:02.505Z,16.48
2023-01-21T18:40:06.334Z,13.65
2023-01-21T18:42:12.730Z,15.60
2023-01-21T18:44:16.136Z,15.70
2023-01-21T18:46:19.807Z,17.00
2023-01-21T18:48:28.492Z,17.73
2023-01-21T18:50:31.571Z,15.05
2023-01-21T18:52:35.742Z,14.27
2023-01-21T18:54:38.516Z,14.75
2023-01-21T18:56:42.404Z,14.55
2023-01-21T18:58:45.172Z,14.65
2023-01-21T19:00:48.064Z,14.10
2023-01-21T19:02:53.479Z,16.88
2023-01-21T19:04:56.210Z,17.05
2023-01-21T19:06:58.996Z,16.98
2023-01-21T19:09:03.061Z,16.25
2023-01-21T19:11:06.014Z,15.82
2023-01-21T19:13:09.897Z,15.48
2023-01-21T19:15:15.992Z,20.70
2023-01-21T19:17:26.767Z,16.80
2023-01-21T19:19:29.509Z,17.08
2023-01-21T19:21:32.337Z,17.50
2023-01-21T19:23:35.787Z,17.77
2023-01-21T19:25:39.891Z,17.77
2023-01-21T19:27:45.235Z,17.50
2023-01-21T19:29:48.074Z,16.08
2023-01-21T19:31:50.876Z,17.17
2023-01-21T19:33:53.892Z,16.23
2023-01-21T19:36:01.356Z,16.58
2023-01-21T19:38:10.616Z,18.50
2023-01-21T19:40:18.007Z,19.58
2023-01-21T19:42:22.170Z,19.38
2023-01-21T19:44:24.958Z,19.05
2023-01-21T19:46:28.794Z,17.95
2023-01-21T19:48:31.671Z,20.70
2023-01-21T19:50:34.374Z,24.30
2023-01-21T19:52:38.052Z,15.63
2023-01-21T19:54:40.721Z,17.35
2023-01-21T19:56:43.437Z,16.65
2023-01-21T19:58:48.811Z,15.43
2023-01-21T20:00:53.570Z,14.73
2023-01-21T20:02:56.768Z,15.70
2023-01-21T20:04:59.442Z,16.58
2023-01-21T20:07:02.336Z,14.80
2023-01-21T20:09:06.037Z,15.23
2023-01-21T20:11:08.739Z,16.05
2023-01-21T20:13:13.052Z,15.13
2023-01-21T20:15:18.915Z,15.35
2023-01-21T20:17:22.183Z,14.95
2023-01-21T20:19:24.984Z,15.07
2023-01-21T20:21:27.737Z,15.85
2023-01-21T20:23:32.535Z,13.70
2023-01-21T20:25:38.759Z,15.60
2023-01-21T20:27:41.583Z,18.23
2023-01-21T20:29:55.673Z,17.08
2023-01-21T20:32:00.063Z,15.88
2023-01-21T20:34:02.844Z,15.50
2023-01-21T20:36:07.826Z,17.30
2023-01-21T20:38:14.278Z,16.92
2023-01-21T20:40:20.151Z,17.70
2023-01-21T20:42:22.906Z,16.52
2023-01-21T20:44:25.594Z,17.42
2023-01-21T20:46:30.424Z,17.98
2023-01-21T20:48:37.278Z,18.73
2023-01-21T20:50:39.952Z,18.42
2023-01-21T20:52:42.634Z,18.02
2023-01-21T20:54:45.307Z,18.48
2023-01-21T20:56:48.230Z,17.30
2023-01-21T20:58:50.971Z,13.70
2023-01-21T21:00:53.675Z,14.63
2023-01-21T21:02:57.589Z,13.05
2023-01-21T21:05:01.680Z,14.07
2023-01-21T21:07:04.395Z,12.27
2023-01-21T21:09:07.036Z,14.85
2023-01-21T21:11:10.164Z,14.43
2023-01-21T21:13:14.038Z,13.88
2023-01-21T21:15:19.351Z,14.40
2023-01-21T21:17:22.673Z,14.65
2023-01-21T21:19:25.388Z,13.55
2023-01-21T21:21:29.487Z,14.45
2023-01-21T21:23:32.140Z,14.55
2023-01-21T21:25:42.213Z,14.52
2023-01-21T21:27:45.830Z,15.55
2023-01-21T21:29:48.564Z,12.98
2023-01-21T21:31:52.027Z,13.73
2023-01-21T21:33:54.761Z,13.82
2023-01-21T21:35:57.950Z,17.05
2023-01-21T21:38:06.158Z,13.65
2023-01-21T21:40:10.420Z,14.13
2023-01-21T21:42:32.212Z,16.40
2023-01-21T21:44:36.253Z,13.98
2023-01-21T21:46:57.569Z,17.50
2023-01-21T21:49:01.170Z,16.42
2023-01-21T21:51:04.732Z,16.98
2023-01-21T21:53:12.169Z,15.07
2023-01-21T21:55:19.312Z,13.40
2023-01-21T21:57:22.176Z,14.88
2023-01-21T21:59:25.978Z,13.82
2023-01-21T22:01:31.093Z,13.75
2023-01-21T22:03:33.908Z,14.95
2023-01-21T22:05:37.686Z,17.08
2023-01-21T22:07:40.423Z,12.30
2023-01-21T22:09:44.486Z,13.45
2023-01-21T22:11:47.201Z,12.65
2023-01-21T22:13:51.759Z,11.02
2023-01-21T22:15:55.692Z,12.93
2023-01-21T22:17:58.398Z,12.02
2023-01-21T22:20:01.151Z,13.27
2023-01-21T22:22:03.866Z,13.05
2023-01-21T22:24:08.220Z,13.88
2023-01-21T22:26:15.081Z,12.65
2023-01-21T22:28:20.115Z,13.70
2023-01-21T22:30:22.951Z,14.35
2023-01-21T22:32:25.727Z,14.30
2023-01-21T22:34:28.452Z,15.52
2023-01-21T22:36:32.276Z,13.15
2023-01-21T22:38:36.151Z,12.68
2023-01-21T22:40:40.156Z,12.52
2023-01-21T22:42:44.228Z,14.60
2023-01-21T22:44:46.952Z,12.98
2023-01-21T22:46:49.639Z,13.27
2023-01-21T22:48:53.620Z,10.20
2023-01-21T22:50:58.868Z,10.93
2023-01-21T22:53:01.639Z,12.43
2023-01-21T22:55:04.794Z,12.00
2023-01-21T22:57:07.572Z,12.07
2023-01-21T22:59:11.677Z,12.55
2023-01-21T23:01:24.955Z,11.43
2023-01-21T23:03:29.011Z,12.13
2023-01-21T23:05:32.807Z,13.20
2023-01-21T23:07:35.605Z,11.10
2023-01-21T23:09:38.362Z,11.05
2023-01-21T23:11:41.539Z,10.55
2023-01-21T23:13:44.686Z,12.88
2023-01-21T23:15:48.826Z,10.55
2023-01-21T23:17:53.653Z,11.00
2023-01-21T23:19:56.362Z,10.93
2023-01-21T23:21:59.080Z,10.77
2023-01-21T23:24:01.812Z,10.27
2023-01-21T23:26:05.656Z,9.50
2023-01-21T23:28:08.534Z,10.23
2023-01-21T23:30:14.157Z,10.07
2023-01-21T23:32:18.182Z,10.10
2023-01-21T23:34:22.686Z,10.85
2023-01-21T23:36:25.641Z,8.80
2023-01-21T23:38:28.953Z,10.38
2023-01-21T23:40:31.675Z,8.82
2023-01-21T23:42:34.420Z,10.13
2023-01-21T23:44:37.118Z,9.55
2023-01-21T23:46:39.980Z,10.00
2023-01-21T23:48:44.347Z,9.30
2023-01-21T23:50:47.052Z,9.10
2023-01-21T23:52:49.819Z,8.70
2023-01-21T23:54:52.670Z,8.93
2023-01-21T23:56:56.203Z,8.18
2023-01-21T23:58:58.901Z,8.20
